Time;durP1;ratioP1;P1;durP2;ratioP2;P2;SDS_P1;SDS_P2;PMS_P1;PMS_P2;Temp;Humidity;BMP_temperature;BMP_pressure;BME280_temperature;BME280_humidity;BME280_pressure;Samples;Min_cycle;Max_cycle;Signal;HPM_P1;HPM_P2
2023/06/16 00:00:38;;;;;;;12.68;9.27;;;;;;;;;;5098341;28;20936;-73
2023/06/16 00:03:05;;;;;;;11.43;8.80;;;;;;;;;;5092014;28;20406;-73
2023/06/16 00:05:34;;;;;;;13.82;8.90;;;;;;;;;;5086194;28;20409;-74
2023/06/16 00:08:02;;;;;;;11.90;9.05;;;;;;;;;;5089930;28;20414;-74
2023/06/16 00:10:29;;;;;;;10.10;8.90;;;;;;;;;;5101224;28;20412;-74
2023/06/16 00:12:55;;;;;;;12.35;9.65;;;;;;;;;;5092755;28;20473;-73
2023/06/16 00:15:21;;;;;;;12.33;9.47;;;;;;;;;;5093892;28;20404;-73
2023/06/16 00:17:49;;;;;;;12.07;9.30;;;;;;;;;;5077301;28;20448;-74
2023/06/16 00:20:19;;;;;;;12.10;9.35;;;;;;;;;;5110398;28;20429;-73
2023/06/16 00:22:47;;;;;;;11.95;9.63;;;;;;;;;;5105862;28;20900;-74
2023/06/16 00:25:17;;;;;;;12.43;10.10;;;;;;;;;;5095318;28;20798;-74
2023/06/16 00:27:44;;;;;;;13.68;10.38;;;;;;;;;;5095572;28;20392;-74
2023/06/16 00:30:10;;;;;;;12.05;10.18;;;;;;;;;;5112588;28;20419;-74
2023/06/16 00:32:36;;;;;;;12.73;10.23;;;;;;;;;;5087975;28;20493;-74
2023/06/16 00:35:02;;;;;;;13.10;11.05;;;;;;;;;;5111179;28;20393;-73
2023/06/16 00:37:29;;;;;;;13.68;10.90;;;;;;;;;;5096395;28;20781;-74
2023/06/16 00:39:55;;;;;;;16.53;12.03;;;;;;;;;;5106386;28;20908;-74
2023/06/16 00:42:21;;;;;;;13.50;11.20;;;;;;;;;;5091756;28;20396;-74
2023/06/16 00:44:47;;;;;;;13.80;12.00;;;;;;;;;;5068355;28;20401;-74
2023/06/16 00:47:13;;;;;;;15.93;11.63;;;;;;;;;;5099303;28;20509;-74
2023/06/16 00:49:40;;;;;;;20.13;11.82;;;;;;;;;;5103508;28;20423;-74
2023/06/16 00:52:08;;;;;;;15.70;11.45;;;;;;;;;;5094247;28;20400;-74
2023/06/16 00:54:34;;;;;;;14.60;11.05;;;;;;;;;;5094659;28;20919;-74
2023/06/16 00:57:00;;;;;;;14.55;11.05;;;;;;;;;;5094581;28;20432;-74
2023/06/16 00:59:27;;;;;;;11.85;10.48;;;;;;;;;;5087804;28;20412;-74
2023/06/16 01:01:55;;;;;;;13.27;10.02;;;;;;;;;;5094329;28;20498;-74
2023/06/16 01:04:25;;;;;;;12.75;9.70;;;;;;;;;;5058226;28;20394;-74
2023/06/16 01:07:11;;;;;;;14.60;9.93;;;;;;;;;;5074411;28;20402;-74
2023/06/16 01:09:47;;;;;;;12.30;9.70;;;;;;;;;;5092380;28;20418;-73
2023/06/16 01:12:24;;;;;;;15.38;9.45;;;;;;;;;;5074657;28;20422;-73
2023/06/16 01:14:57;;;;;;;14.48;9.70;;;;;;;;;;5098407;28;20414;-74
2023/06/16 01:17:23;;;;;;;13.45;9.63;;;;;;;;;;5095093;28;20448;-74
2023/06/16 01:19:53;;;;;;;16.55;10.15;;;;;;;;;;5077397;28;20422;-74
2023/06/16 01:22:31;;;;;;;15.52;10.32;;;16.40;99.90;;;;;;5078423;28;20417;-74
2023/06/16 01:25:02;;;;;;;19.40;10.05;;;16.40;99.90;;;;;;5100168;28;20433;-74
2023/06/16 01:27:29;;;;;;;18.48;10.38;;;;;;;;;;5094790;28;20484;-73
2023/06/16 01:29:57;;;;;;;21.90;10.32;;;16.20;99.90;;;;;;5098298;28;20483;-73
2023/06/16 01:32:24;;;;;;;18.67;9.95;;;;;;;;;;5096784;28;20418;-74
2023/06/16 01:34:51;;;;;;;15.73;10.30;;;16.30;99.90;;;;;;5098911;28;20417;-73
2023/06/16 01:37:18;;;;;;;19.67;10.00;;;16.00;99.90;;;;;;5047909;28;20412;-74
2023/06/16 01:39:45;;;;;;;16.73;10.32;;;16.10;99.90;;;;;;5081786;28;20426;-74
2023/06/16 01:42:13;;;;;;;16.85;10.25;;;16.10;99.90;;;;;;5063486;28;20404;-74
2023/06/16 01:44:41;;;;;;;17.17;9.95;;;16.10;99.90;;;;;;5098119;28;20403;-73
2023/06/16 01:47:08;;;;;;;15.38;10.02;;;16.20;99.90;;;;;;5108506;28;20413;-74
2023/06/16 01:49:34;;;;;;;18.48;10.20;;;;;;;;;;5084595;28;20501;-74
2023/06/16 01:52:01;;;;;;;19.40;10.63;;;16.00;99.90;;;;;;5077982;28;20401;-74
2023/06/16 01:54:27;;;;;;;14.75;9.80;;;15.90;99.90;;;;;;5104514;28;20468;-74
2023/06/16 01:56:53;;;;;;;22.63;10.95;;;;;;;;;;5102902;28;20412;-74
2023/06/16 01:59:19;;;;;;;23.73;11.15;;;;;;;;;;5077562;28;20992;-74
2023/06/16 02:02:02;;;;;;;17.75;10.68;;;15.80;99.90;;;;;;5103631;28;20461;-73
2023/06/16 02:04:32;;;;;;;15.65;10.57;;;15.60;99.90;;;;;;5098305;28;20411;-73
2023/06/16 02:07:12;;;;;;;20.45;10.70;;;15.60;99.90;;;;;;5093511;28;20408;-74
2023/06/16 02:09:39;;;;;;;16.25;10.52;;;;;;;;;;5093675;28;20913;-73
2023/06/16 02:12:06;;;;;;;21.48;11.05;;;;;;;;;;5085185;28;20825;-74
2023/06/16 02:14:35;;;;;;;21.80;11.05;;;;;;;;;;5090370;28;20444;-73
2023/06/16 02:17:14;;;;;;;18.13;11.15;;;;;;;;;;5092219;28;20403;-74
2023/06/16 02:19:40;;;;;;;14.67;10.63;;;;;;;;;;5099388;28;20422;-73
2023/06/16 02:22:07;;;;;;;13.88;10.55;;;;;;;;;;5077422;28;20406;-73
2023/06/16 02:24:33;;;;;;;14.98;10.77;;;;;;;;;;5087618;28;20443;-74
2023/06/16 02:27:00;;;;;;;11.65;10.07;;;;;;;;;;5077720;28;20398;-75
2023/06/16 02:29:26;;;;;;;12.77;10.40;;;;;;;;;;5099612;28;20766;-74
2023/06/16 02:31:52;;;;;;;12.75;10.50;;;;;;;;;;5095843;28;20394;-74
2023/06/16 02:34:18;;;;;;;14.50;10.80;;;;;;;;;;5103302;28;20407;-74
2023/06/16 02:36:44;;;;;;;13.97;11.00;;;;;;;;;;5081373;28;20498;-74
2023/06/16 02:39:11;;;;;;;16.00;11.87;;;;;;;;;;5094281;28;20439;-74
2023/06/16 02:41:37;;;;;;;14.45;11.98;;;;;;;;;;5103326;28;20985;-74
2023/06/16 02:44:03;;;;;;;14.38;12.30;;;;;;;;;;5095652;28;20917;-74
2023/06/16 02:46:29;;;;;;;13.60;11.77;;;;;;;;;;5086067;28;20469;-74
2023/06/16 02:48:55;;;;;;;15.40;12.07;;;;;;;;;;5096922;28;20467;-73
2023/06/16 02:51:21;;;;;;;14.77;11.82;;;;;;;;;;5088480;28;20419;-73
2023/06/16 02:53:47;;;;;;;16.30;11.73;;;;;;;;;;5095505;28;20469;-74
2023/06/16 02:56:14;;;;;;;14.13;11.35;;;;;;;;;;5099374;28;20417;-73
2023/06/16 02:58:40;;;;;;;13.43;11.90;;;;;;;;;;5077754;28;20688;-74
2023/06/16 03:01:06;;;;;;;14.15;12.15;;;;;;;;;;5096831;28;20500;-74
2023/06/16 03:03:36;;;;;;;14.30;12.20;;;;;;;;;;5077406;28;20581;-74
2023/06/16 03:06:02;;;;;;;15.93;11.95;;;;;;;;;;5095678;28;20908;-74
2023/06/16 03:08:28;;;;;;;15.30;11.97;;;;;;;;;;5104385;28;20415;-74
2023/06/16 03:10:54;;;;;;;14.65;12.65;;;;;;;;;;5096527;28;20419;-74
2023/06/16 04:56:30;;;;;;;27.65;21.58;;;15.30;99.90;;;;;;5109896;27;20362;-75
2023/06/16 04:58:56;;;;;;;26.17;20.87;;;;;;;;;;5076680;28;20498;-74
2023/06/16 05:01:26;;;;;;;28.60;22.23;;;;;;;;;;5055286;28;20395;-74
2023/06/16 05:03:52;;;;;;;26.35;22.38;;;;;;;;;;5089098;28;20433;-74
2023/06/16 05:06:18;;;;;;;26.33;22.48;;;15.40;99.90;;;;;;5142988;27;20405;-74
2023/06/16 05:08:43;;;;;;;27.23;23.90;;;15.60;99.90;;;;;;5086743;28;20412;-75
2023/06/16 05:11:09;;;;;;;30.42;24.17;;;15.80;99.90;;;;;;5066302;28;20423;-75
2023/06/16 05:13:35;;;;;;;30.75;25.83;;;15.90;99.90;;;;;;5106057;28;20428;-75
2023/06/16 05:16:01;;;;;;;30.05;25.50;;;;;;;;;;5108369;28;20421;-75
2023/06/16 05:18:27;;;;;;;29.83;26.40;;;15.90;99.90;;;;;;5066912;28;20462;-75
2023/06/16 05:20:53;;;;;;;30.93;25.63;;;;;;;;;;5045906;28;20425;-74
2023/06/16 05:23:18;;;;;;;30.40;26.83;;;16.30;99.90;;;;;;5092166;28;20453;-76
2023/06/16 05:25:45;;;;;;;29.53;26.03;;;16.10;99.90;;;;;;5090241;28;20422;-75
2023/06/16 05:28:11;;;;;;;30.58;26.50;;;;;;;;;;5096655;28;20430;-75
2023/06/16 05:30:37;;;;;;;28.98;25.88;;;;;;;;;;5105628;28;20413;-75
2023/06/16 05:33:03;;;;;;;30.13;25.97;;;16.40;99.90;;;;;;5079961;28;20513;-75
2023/06/16 05:35:29;;;;;;;32.47;26.17;;;;;;;;;;5066349;28;20502;-75
2023/06/16 05:37:55;;;;;;;30.55;26.67;;;;;;;;;;5058459;28;20427;-75
2023/06/16 05:40:21;;;;;;;29.25;26.05;;;;;;;;;;5074210;28;20433;-75
2023/06/16 05:42:47;;;;;;;29.97;25.63;;;16.70;99.90;;;;;;5073395;28;20424;-75
2023/06/16 05:45:12;;;;;;;27.57;24.63;;;16.70;99.90;;;;;;5107973;28;20784;-75
2023/06/16 05:47:38;;;;;;;28.00;24.38;;;16.90;99.90;;;;;;5078750;28;20419;-75
2023/06/16 05:50:04;;;;;;;25.58;22.85;;;;;;;;;;5092476;28;20437;-75
2023/06/16 05:52:30;;;;;;;26.60;23.35;;;17.00;99.90;;;;;;5092815;28;20766;-74
2023/06/16 05:54:57;;;;;;;26.25;22.52;;;17.10;99.90;;;;;;5055076;28;20430;-74
2023/06/16 05:57:24;;;;;;;25.48;22.65;;;17.30;99.90;;;;;;5074023;28;20401;-74
2023/06/16 05:59:50;;;;;;;25.60;22.80;;;17.40;99.90;;;;;;5116887;28;20420;-74
2023/06/16 06:02:17;;;;;;;27.23;23.15;;;17.40;99.90;;;;;;5095906;28;20424;-76
2023/06/16 06:04:43;;;;;;;23.75;21.27;;;;;;;;;;5095365;28;20457;-75
2023/06/16 06:07:08;;;;;;;26.20;23.27;;;17.50;99.90;;;;;;5104885;28;20431;-75
2023/06/16 06:09:34;;;;;;;25.40;21.63;;;17.60;99.90;;;;;;5077034;28;20428;-76
2023/06/16 06:12:01;;;;;;;25.17;22.15;;;;;;;;;;5076960;28;20803;-76
2023/06/16 06:14:26;;;;;;;26.17;21.73;;;17.90;99.90;;;;;;5101169;28;20453;-75
2023/06/16 06:16:52;;;;;;;23.17;20.67;;;18.00;99.90;;;;;;5089569;28;20424;-75
2023/06/16 06:19:19;;;;;;;23.73;21.23;;;;;;;;;;5106304;28;20412;-74
2023/06/16 06:21:45;;;;;;;22.25;19.95;;;;;;;;;;5081370;28;20447;-74
2023/06/16 06:24:12;;;;;;;25.63;21.50;;;;;;;;;;5105987;28;20577;-75
2023/06/16 06:26:38;;;;;;;24.58;20.40;;;;;;;;;;5099705;28;20416;-74
2023/06/16 06:29:04;;;;;;;21.42;19.02;;;18.60;99.90;;;;;;5094002;28;20503;-74
2023/06/16 06:31:30;;;;;;;23.33;19.20;;;;;;;;;;5090844;28;20492;-75
2023/06/16 06:33:56;;;;;;;22.00;19.25;;;18.50;99.90;;;;;;5082686;28;20418;-74
2023/06/16 06:36:27;;;;;;;22.17;19.80;;;18.70;99.90;;;;;;5102460;28;20776;-75
2023/06/16 06:38:53;;;;;;;23.25;18.83;;;18.70;99.90;;;;;;5094955;28;20478;-75
2023/06/16 06:41:19;;;;;;;20.20;17.52;;;18.50;99.90;;;;;;5077892;28;20420;-75
2023/06/16 06:43:45;;;;;;;22.13;18.35;;;18.60;99.90;;;;;;5099824;28;20429;-74
2023/06/16 06:46:11;;;;;;;21.67;18.02;;;;;;;;;;5075666;28;20762;-74
2023/06/16 06:48:38;;;;;;;19.30;17.13;;;;;;;;;;5100325;28;20465;-74
2023/06/16 06:51:03;;;;;;;20.88;17.58;;;19.10;99.90;;;;;;5103232;28;20475;-74
2023/06/16 06:53:29;;;;;;;21.80;16.58;;;19.30;99.90;;;;;;5081115;28;20414;-74
2023/06/16 06:55:55;;;;;;;19.67;16.63;;;19.70;99.90;;;;;;5079123;28;20498;-74
2023/06/16 06:58:20;;;;;;;21.07;15.90;;;19.40;99.90;;;;;;5092714;28;20838;-74
2023/06/16 07:00:46;;;;;;;17.45;15.55;;;19.60;99.90;;;;;;5096117;28;20416;-74
2023/06/16 07:03:12;;;;;;;19.85;15.95;;;20.00;99.90;;;;;;5104744;28;20427;-75
2023/06/16 07:05:38;;;;;;;18.27;15.53;;;19.50;99.90;;;;;;5077958;28;20413;-74
2023/06/16 07:08:04;;;;;;;18.17;15.40;;;19.90;99.90;;;;;;5095347;28;20418;-74
2023/06/16 07:10:32;;;;;;;17.70;15.33;;;19.90;99.90;;;;;;5085957;28;20419;-74
2023/06/16 07:12:58;;;;;;;20.05;15.55;;;20.20;99.90;;;;;;5105165;28;20421;-74
2023/06/16 07:15:24;;;;;;;18.67;15.23;;;20.10;99.90;;;;;;5102367;28;20420;-74
2023/06/16 07:17:50;;;;;;;16.92;14.65;;;20.00;99.90;;;;;;5106237;28;20412;-75
2023/06/16 07:20:16;;;;;;;15.73;14.02;;;19.80;99.90;;;;;;5109659;28;20419;-75
2023/06/16 07:22:45;;;;;;;16.33;13.10;;;20.20;99.90;;;;;;5098029;28;20416;-75
2023/06/16 07:25:14;;;;;;;15.27;13.25;;;20.60;99.90;;;;;;5076133;28;20458;-75
2023/06/16 07:27:41;;;;;;;13.95;11.98;;;;;;;;;;5094536;28;20425;-75
2023/06/16 07:30:07;;;;;;;13.00;11.18;;;20.30;99.90;;;;;;5075522;28;20405;-75
2023/06/16 07:32:33;;;;;;;12.00;10.70;;;20.70;99.90;;;;;;5075015;28;20418;-75
2023/06/16 07:34:59;;;;;;;12.27;10.23;;;21.00;99.90;;;;;;5094234;28;20505;-75
2023/06/16 07:37:25;;;;;;;12.00;10.63;;;21.00;99.90;;;;;;5085889;28;20832;-74
2023/06/16 07:39:51;;;;;;;12.00;10.00;;;21.00;99.90;;;;;;5094815;28;20779;-75
2023/06/16 07:42:16;;;;;;;10.10;8.80;;;21.10;99.90;;;;;;5101286;28;20421;-75
2023/06/16 07:44:42;;;;;;;9.70;8.43;;;21.10;99.90;;;;;;5075591;28;20499;-75
2023/06/16 07:47:08;;;;;;;10.40;8.90;;;21.20;99.90;;;;;;5068910;28;20424;-75
2023/06/16 07:49:33;;;;;;;10.13;8.70;;;21.50;99.90;;;;;;5077207;28;20430;-75
2023/06/16 07:51:59;;;;;;;11.63;9.17;;;21.20;99.90;;;;;;5092237;28;21181;-75
2023/06/16 07:54:25;;;;;;;11.85;9.32;;;21.40;99.90;;;;;;5077505;28;20461;-75
2023/06/16 07:56:51;;;;;;;13.43;9.90;;;21.50;99.90;;;;;;5076341;28;20540;-74
2023/06/16 07:59:17;;;;;;;12.60;10.00;;;21.60;99.90;;;;;;5099551;28;20463;-75
2023/06/16 08:01:44;;;;;;;13.45;10.60;;;21.70;99.90;;;;;;5094143;28;20815;-75
2023/06/16 08:04:11;;;;;;;10.75;9.07;;;21.70;99.90;;;;;;5071937;28;20934;-76
2023/06/16 08:06:37;;;;;;;8.90;7.20;;;21.90;99.90;;;;;;5088531;28;20417;-76
2023/06/16 08:09:05;;;;;;;13.98;9.00;;;21.80;99.90;;;;;;5083630;28;21035;-75
2023/06/16 08:11:31;;;;;;;11.07;8.02;;;;;;;;;;5080502;28;20450;-76
2023/06/16 08:13:57;;;;;;;8.70;7.63;;;22.20;99.90;;;;;;5080311;28;20413;-76
2023/06/16 08:16:23;;;;;;;9.07;7.33;;;22.30;99.90;;;;;;5093756;28;20504;-76
2023/06/16 08:18:50;;;;;;;10.05;8.50;;;22.40;99.90;;;;;;5096502;28;20420;-75
2023/06/16 08:21:16;;;;;;;10.35;8.05;;;;;;;;;;5084661;28;20414;-76
2023/06/16 08:23:42;;;;;;;9.63;8.25;;;22.40;99.90;;;;;;5093925;28;20432;-75
2023/06/16 08:26:08;;;;;;;10.93;8.85;;;;;;;;;;5077711;28;20437;-75
2023/06/16 08:28:35;;;;;;;11.32;8.63;;;22.30;99.90;;;;;;5096978;28;20417;-75
2023/06/16 08:31:01;;;;;;;11.48;8.95;;;;;;;;;;5080886;28;20477;-75
2023/06/16 08:33:27;;;;;;;11.10;8.38;;;22.50;99.90;;;;;;5097127;28;20416;-75
2023/06/16 08:35:53;;;;;;;9.48;7.00;;;22.70;99.90;;;;;;5096561;28;20417;-75
2023/06/16 08:38:19;;;;;;;11.55;7.70;;;22.70;99.90;;;;;;5079854;28;20797;-75
2023/06/16 08:40:46;;;;;;;9.95;7.03;;;22.80;99.90;;;;;;5086102;28;20417;-75
2023/06/16 08:43:14;;;;;;;8.25;7.30;;;22.50;99.90;;;;;;5086766;28;20435;-76
2023/06/16 08:45:40;;;;;;;8.13;6.57;;;;;;;;;;5095152;28;20477;-74
2023/06/16 08:48:06;;;;;;;8.20;6.10;;;;;;;;;;5111765;28;20380;-74
2023/06/16 08:50:32;;;;;;;9.35;7.40;;;;;;;;;;5102801;28;20837;-74
2023/06/16 08:53:00;;;;;;;10.43;8.00;;;;;;;;;;5104365;28;20762;-74
2023/06/16 08:55:28;;;;;;;9.93;6.75;;;22.60;99.90;;;;;;5090739;28;20532;-73
2023/06/16 08:57:56;;;;;;;8.20;6.60;;;;;;;;;;5091213;28;20719;-74
2023/06/16 09:00:22;;;;;;;6.97;5.25;;;;;;;;;;5093393;28;20408;-73
2023/06/16 09:02:55;;;;;;;8.23;5.57;;;22.50;99.10;;;;;;5091866;28;20462;-73
2023/06/16 09:05:22;;;;;;;9.80;7.75;;;22.50;99.00;;;;;;5102885;28;20408;-72
2023/06/16 09:07:49;;;;;;;8.57;5.68;;;22.70;98.80;;;;;;5093785;28;20463;-73
2023/06/16 09:10:16;;;;;;;9.75;7.45;;;22.90;99.20;;;;;;5090999;28;20409;-73
2023/06/16 09:12:42;;;;;;;8.38;5.40;;;22.90;99.00;;;;;;5094220;28;20411;-74
2023/06/16 09:15:10;;;;;;;8.40;5.20;;;23.10;98.30;;;;;;5102277;28;20418;-73
2023/06/16 09:17:39;;;;;;;11.32;10.13;;;;;;;;;;5092294;28;20397;-74
2023/06/16 09:20:12;;;;;;;7.30;5.17;;;23.10;97.30;;;;;;5092722;28;20400;-74
2023/06/16 09:22:39;;;;;;;9.90;6.70;;;;;;;;;;5106203;28;20901;-74
2023/06/16 09:25:05;;;;;;;7.75;4.70;;;23.20;96.20;;;;;;5067688;28;20897;-74
2023/06/16 09:27:45;;;;;;;9.20;4.80;;;23.10;96.80;;;;;;5091094;28;20474;-74
2023/06/16 09:30:16;;;;;;;5.93;4.05;;;23.40;97.00;;;;;;5098424;28;20412;-74
2023/06/16 09:32:43;;;;;;;7.78;4.30;;;;;;;;;;5091224;28;20539;-73
2023/06/16 09:35:24;;;;;;;8.18;6.65;;;23.60;95.90;;;;;;5074978;28;20421;-72
2023/06/16 09:37:55;;;;;;;5.47;4.50;;;23.60;95.50;;;;;;5087627;28;20413;-73
2023/06/16 09:40:28;;;;;;;5.72;4.05;;;23.60;95.50;;;;;;5075101;28;20413;-73
2023/06/16 09:42:58;;;;;;;6.35;4.40;;;23.70;94.70;;;;;;5092387;28;20419;-72
2023/06/16 09:45:29;;;;;;;6.53;3.90;;;23.60;94.70;;;;;;5079605;28;20486;-73
2023/06/16 09:47:56;;;;;;;6.25;3.83;;;23.80;95.00;;;;;;5116346;28;20396;-73
2023/06/16 09:50:25;;;;;;;6.80;4.30;;;23.70;94.90;;;;;;5092016;28;20425;-73
2023/06/16 09:52:53;;;;;;;11.00;9.15;;;23.90;94.50;;;;;;5094188;28;20394;-73
2023/06/16 09:55:19;;;;;;;6.95;3.80;;;;;;;;;;5108679;28;20417;-73
2023/06/16 09:57:46;;;;;;;5.73;3.67;;;23.90;94.70;;;;;;5095808;28;20769;-73
2023/06/16 10:00:17;;;;;;;7.78;5.35;;;23.90;94.50;;;;;;5095591;28;20397;-73
2023/06/16 10:02:44;;;;;;;4.80;3.67;;;23.90;94.50;;;;;;5083016;28;20494;-73
2023/06/16 10:05:13;;;;;;;5.20;3.83;;;23.90;94.40;;;;;;5094331;28;20406;-73
2023/06/16 10:07:42;;;;;;;6.07;3.55;;;23.90;94.10;;;;;;5077666;28;20727;-74
2023/06/16 10:10:12;;;;;;;5.85;3.67;;;24.10;93.90;;;;;;5097949;28;20394;-76
2023/06/16 10:12:44;;;;;;;5.10;3.50;;;23.90;93.20;;;;;;5097114;28;20441;-76
2023/06/16 10:15:15;;;;;;;5.33;3.43;;;23.80;93.40;;;;;;5095024;28;20432;-77
2023/06/16 10:17:41;;;;;;;5.57;3.50;;;23.70;93.80;;;;;;5085751;28;20408;-76
2023/06/16 10:20:13;;;;;;;5.07;3.42;;;23.70;93.90;;;;;;5105174;28;20416;-76
2023/06/16 10:22:39;;;;;;;10.30;3.70;;;24.00;93.40;;;;;;5096950;28;20404;-75
2023/06/16 10:25:06;;;;;;;5.13;3.83;;;24.00;92.60;;;;;;5099301;28;20470;-76
2023/06/16 10:27:33;;;;;;;6.07;3.78;;;24.00;92.70;;;;;;5078486;28;20826;-76
2023/06/16 10:30:01;;;;;;;5.70;3.70;;;23.90;92.50;;;;;;5096470;28;20425;-74
2023/06/16 10:32:27;;;;;;;6.47;3.30;;;23.90;92.60;;;;;;5086327;28;20425;-74
2023/06/16 10:34:56;;;;;;;7.03;3.47;;;23.90;92.50;;;;;;5102165;28;20425;-74
2023/06/16 10:37:23;;;;;;;6.45;3.35;;;24.10;92.60;;;;;;5077595;28;20466;-75
2023/06/16 10:39:54;;;;;;;4.70;3.15;;;23.90;91.60;;;;;;5079108;28;20477;-74
2023/06/16 10:42:20;;;;;;;7.28;5.35;;;23.80;91.70;;;;;;5100514;28;20420;-75
2023/06/16 10:44:46;;;;;;;5.93;3.92;;;24.10;91.90;;;;;;5109636;28;20419;-75
2023/06/16 10:47:11;;;;;;;5.00;3.87;;;24.10;91.10;;;;;;5107364;28;20911;-77
2023/06/16 10:49:46;;;;;;;6.50;3.90;;;24.20;91.20;;;;;;5081347;28;20813;-76
2023/06/16 10:52:30;;;;;;;6.20;3.60;;;24.10;91.10;;;;;;5101118;28;20939;-75
2023/06/16 10:54:56;;;;;;;6.90;4.40;;;24.20;90.40;;;;;;5076101;28;20425;-74
2023/06/16 10:57:25;;;;;;;7.15;4.70;;;24.20;91.00;;;;;;5092372;28;20416;-75
2023/06/16 11:00:10;;;;;;;7.38;4.00;;;24.40;90.80;;;;;;5100655;28;20424;-74
2023/06/16 11:02:38;;;;;;;5.03;3.60;;;24.70;90.30;;;;;;5101303;28;20499;-75
2023/06/16 11:05:12;;;;;;;5.53;4.53;;;24.70;90.70;;;;;;5092780;28;20504;-75
2023/06/16 11:08:08;;;;;;;7.03;4.10;;;24.80;90.30;;;;;;5098344;28;20768;-75
2023/06/16 11:10:54;;;;;;;7.60;5.40;;;25.00;89.30;;;;;;5092319;28;20425;-75
2023/06/16 11:13:26;;;;;;;8.88;5.85;;;25.00;90.30;;;;;;5091413;28;20793;-75
2023/06/16 11:15:55;;;;;;;5.22;4.38;;;24.80;90.10;;;;;;5094494;28;20410;-74
2023/06/16 11:18:25;;;;;;;6.45;3.85;;;25.20;90.30;;;;;;5092739;28;20422;-74
2023/06/16 11:20:59;;;;;;;6.57;3.80;;;24.80;90.10;;;;;;5094306;28;20411;-74
2023/06/16 11:23:25;;;;;;;5.35;3.80;;;24.50;90.10;;;;;;5098685;28;20408;-74
2023/06/16 11:25:51;;;;;;;6.40;4.40;;;24.60;90.00;;;;;;5080898;28;20453;-75
2023/06/16 11:28:21;;;;;;;7.90;3.50;;;24.70;90.30;;;;;;5094378;28;20450;-75
2023/06/16 11:30:47;;;;;;;6.33;3.20;;;24.40;89.50;;;;;;5079598;28;20418;-74
2023/06/16 11:33:17;;;;;;;6.00;3.42;;;24.90;90.10;;;;;;5077497;28;20410;-74
2023/06/16 11:35:43;;;;;;;5.95;4.70;;;24.90;89.10;;;;;;5077402;28;20425;-75
2023/06/16 11:38:09;;;;;;;8.20;3.15;;;24.90;88.50;;;;;;5079574;28;20928;-75
2023/06/16 11:40:35;;;;;;;5.45;3.30;;;25.10;87.80;;;;;;5096904;28;20860;-76
2023/06/16 11:43:03;;;;;;;4.80;3.00;;;25.10;87.50;;;;;;5075398;28;20428;-76
2023/06/16 11:45:32;;;;;;;6.43;3.40;;;25.10;87.80;;;;;;5096423;28;20421;-76
2023/06/16 11:48:00;;;;;;;8.27;3.72;;;25.10;87.70;;;;;;5101418;28;20418;-76
2023/06/16 11:50:26;;;;;;;6.07;3.15;;;25.20;87.70;;;;;;5100968;28;20456;-77
2023/06/16 11:52:53;;;;;;;4.63;3.08;;;25.00;85.90;;;;;;5082009;28;20424;-76
2023/06/16 11:55:19;;;;;;;7.87;3.13;;;25.30;85.60;;;;;;5082013;28;21004;-76
2023/06/16 11:57:46;;;;;;;6.75;3.50;;;25.30;85.70;;;;;;5096895;28;20762;-76
2023/06/16 12:00:13;;;;;;;6.45;3.92;;;25.20;85.70;;;;;;5093580;28;21078;-76
2023/06/16 12:02:40;;;;;;;5.90;3.40;;;25.20;85.10;;;;;;5096763;28;20436;-77
2023/06/16 12:05:10;;;;;;;12.30;4.93;;;25.30;85.40;;;;;;5073091;28;20416;-77
2023/06/16 12:07:37;;;;;;;6.47;3.15;;;25.50;83.70;;;;;;5100138;28;20420;-77
2023/06/16 12:10:03;;;;;;;5.55;3.70;;;25.70;83.90;;;;;;5101251;28;20769;-76
2023/06/16 12:12:33;;;;;;;5.35;3.40;;;25.70;83.50;;;;;;5074880;28;20901;-75
2023/06/16 12:15:02;;;;;;;6.78;3.30;;;25.70;83.20;;;;;;5101647;28;20420;-76
2023/06/16 12:17:27;;;;;;;3.90;2.97;;;25.80;83.00;;;;;;5084193;28;20416;-76
2023/06/16 12:19:53;;;;;;;6.47;3.13;;;26.00;83.60;;;;;;5092383;28;20592;-76
2023/06/16 12:22:22;;;;;;;4.68;3.03;;;26.10;83.70;;;;;;5102070;28;20447;-77
2023/06/16 12:24:48;;;;;;;6.80;3.55;;;26.20;83.10;;;;;;5100565;28;20428;-76
2023/06/16 12:27:24;;;;;;;5.40;3.10;;;26.40;83.10;;;;;;5097927;28;20429;-76
2023/06/16 12:29:59;;;;;;;5.53;3.05;;;26.70;83.20;;;;;;5080329;28;20471;-75
2023/06/16 12:32:30;;;;;;;5.03;3.45;;;26.60;82.20;;;;;;5097760;28;20404;-76
2023/06/16 12:34:56;;;;;;;4.97;3.30;;;26.60;82.40;;;;;;5094095;28;20422;-77
2023/06/16 12:37:27;;;;;;;7.57;5.38;;;26.40;81.40;;;;;;5078764;28;20412;-76
2023/06/16 12:40:06;;;;;;;5.18;3.40;;;26.50;82.10;;;;;;5077003;28;20477;-77
2023/06/16 12:42:33;;;;;;;5.70;3.25;;;26.20;81.30;;;;;;5103735;28;20475;-77
2023/06/16 12:45:04;;;;;;;5.97;3.10;;;26.90;81.80;;;;;;5092248;28;20421;-77
2023/06/16 12:47:31;;;;;;;5.40;2.90;;;26.40;80.80;;;;;;5087450;28;20420;-77
2023/06/16 12:49:58;;;;;;;6.68;3.17;;;26.40;81.10;;;;;;5098955;28;20517;-76
2023/06/16 12:52:26;;;;;;;4.87;3.07;;;26.40;81.00;;;;;;5098310;28;20449;-76
2023/06/16 12:54:53;;;;;;;5.47;3.10;;;26.50;80.60;;;;;;5092763;28;20453;-76
2023/06/16 12:57:20;;;;;;;4.03;2.67;;;26.40;80.60;;;;;;5102571;28;20480;-76
2023/06/16 12:59:47;;;;;;;7.22;3.10;;;26.20;79.90;;;;;;5079385;28;20416;-76
2023/06/16 13:02:13;;;;;;;5.30;3.45;;;26.20;81.00;;;;;;5097398;28;20524;-77
2023/06/16 13:04:39;;;;;;;5.28;3.17;;;26.40;81.50;;;;;;5105303;28;20432;-76
2023/06/16 13:07:05;;;;;;;6.22;3.10;;;26.30;81.30;;;;;;5095299;28;20417;-77
2023/06/16 13:09:30;;;;;;;5.13;2.83;;;26.20;80.50;;;;;;5090390;28;21053;-77
2023/06/16 13:11:58;;;;;;;6.87;3.07;;;26.30;80.60;;;;;;5102176;28;20531;-77
2023/06/16 13:14:25;;;;;;;4.78;2.90;;;26.20;80.20;;;;;;5083058;28;20505;-75
2023/06/16 13:16:51;;;;;;;4.55;2.90;;;26.40;80.10;;;;;;5094953;28;20924;-76
2023/06/16 13:19:16;;;;;;;4.80;2.75;;;26.40;80.00;;;;;;5095797;28;20420;-75
2023/06/16 13:21:43;;;;;;;5.00;3.33;;;26.50;79.80;;;;;;5101079;28;20421;-76
2023/06/16 13:24:09;;;;;;;4.68;3.10;;;26.60;80.10;;;;;;5100957;28;20412;-77
2023/06/16 13:26:34;;;;;;;7.45;3.65;;;26.60;79.70;;;;;;5091668;28;20431;-77
2023/06/16 13:29:00;;;;;;;4.93;3.30;;;26.90;79.70;;;;;;5086136;28;20899;-75
2023/06/16 13:31:26;;;;;;;5.03;2.70;;;26.90;78.70;;;;;;5104586;28;20421;-76
2023/06/16 13:33:52;;;;;;;7.82;3.20;;;27.00;78.30;;;;;;5094864;28;20414;-77
2023/06/16 13:36:20;;;;;;;6.23;3.00;;;27.00;78.00;;;;;;5078011;28;20437;-76
2023/06/16 13:38:46;;;;;;;6.22;3.00;;;26.80;77.80;;;;;;5096600;28;20449;-75
2023/06/16 13:41:15;;;;;;;4.57;3.08;;;26.70;77.40;;;;;;5071039;28;20420;-76
2023/06/16 13:43:42;;;;;;;5.50;2.80;;;26.50;77.00;;;;;;5099107;28;20940;-76
2023/06/16 13:46:08;;;;;;;5.32;2.80;;;26.60;77.60;;;;;;5102834;28;20445;-76
2023/06/16 13:48:34;;;;;;;5.55;2.80;;;26.50;76.60;;;;;;5108088;28;20472;-75
2023/06/16 13:51:00;;;;;;;5.97;2.93;;;26.50;76.60;;;;;;5102488;28;20497;-75
2023/06/16 13:53:26;;;;;;;5.07;2.90;;;26.40;77.00;;;;;;5068759;28;20825;-76
2023/06/16 13:55:53;;;;;;;7.72;5.15;;;26.20;77.30;;;;;;5095463;28;20418;-77
2023/06/16 13:58:19;;;;;;;7.50;4.60;;;26.20;77.00;;;;;;5110670;28;20524;-76
2023/06/16 14:00:45;;;;;;;10.88;6.28;;;26.30;77.30;;;;;;5088812;28;20495;-77
2023/06/16 14:03:11;;;;;;;8.15;4.00;;;26.30;77.40;;;;;;5083697;28;20440;-76
2023/06/16 14:05:40;;;;;;;6.17;3.00;;;26.40;76.50;;;;;;5113708;28;20420;-74
2023/06/16 14:08:06;;;;;;;6.68;4.90;;;26.40;77.70;;;;;;5071106;28;20431;-74
2023/06/16 14:10:32;;;;;;;5.28;3.00;;;26.10;77.30;;;;;;5096081;28;20404;-73
2023/06/16 14:12:59;;;;;;;6.18;2.80;;;25.90;78.00;;;;;;5100867;28;20453;-74
2023/06/16 14:15:25;;;;;;;4.70;2.77;;;25.80;78.40;;;;;;5104154;28;20429;-74
2023/06/16 14:17:51;;;;;;;6.70;2.90;;;25.90;77.30;;;;;;5098348;28;20522;-74
2023/06/16 14:20:17;;;;;;;6.93;2.88;;;26.20;78.00;;;;;;5064873;28;20483;-74
2023/06/16 14:22:43;;;;;;;7.97;4.70;;;26.30;77.70;;;;;;5097675;28;20809;-74
2023/06/16 14:25:09;;;;;;;4.25;2.83;;;26.50;77.50;;;;;;5095401;28;20425;-74
2023/06/16 14:27:36;;;;;;;5.70;3.45;;;26.60;78.70;;;;;;5098260;27;20428;-74
2023/06/16 14:30:07;;;;;;;5.03;2.70;;;26.40;78.10;;;;;;5061268;28;20507;-74
2023/06/16 14:32:34;;;;;;;4.47;2.80;;;26.80;77.10;;;;;;5101841;28;20784;-74
2023/06/16 14:35:01;;;;;;;6.35;3.97;;;27.10;77.20;;;;;;5078582;28;20432;-74
2023/06/16 14:37:27;;;;;;;8.07;2.83;;;27.10;77.60;;;;;;5078865;28;20497;-74
2023/06/16 14:39:52;;;;;;;6.07;3.70;;;27.40;77.70;;;;;;5099018;28;20512;-75
2023/06/16 14:42:18;;;;;;;4.70;3.37;;;27.40;77.10;;;;;;5084839;28;20417;-74
2023/06/16 14:44:44;;;;;;;5.70;2.90;;;27.20;77.60;;;;;;5104827;28;20419;-74
2023/06/16 14:47:11;;;;;;;4.03;2.77;;;27.00;76.80;;;;;;5101888;28;20426;-75
2023/06/16 14:49:37;;;;;;;6.25;3.00;;;27.20;78.00;;;;;;5065676;28;20414;-75
2023/06/16 14:52:03;;;;;;;4.50;3.25;;;27.30;77.00;;;;;;5052768;28;20467;-74
2023/06/16 14:54:28;;;;;;;4.88;2.80;;;27.40;76.40;;;;;;5079219;28;20422;-74